createdAt,value
2018-05-13T00:00:16.354Z,98.40
2018-05-13T00:02:44.562Z,98.90
2018-05-13T00:05:11.440Z,99.40
2018-05-13T00:07:38.371Z,99.50
2018-05-13T00:10:05.347Z,99.20
2018-05-13T00:12:31.535Z,99.10
2018-05-13T00:14:57.732Z,98.80
2018-05-13T00:17:23.937Z,99.90
2018-05-13T00:19:50.031Z,99.10
2018-05-13T00:22:19.587Z,99.10
2018-05-13T00:24:45.668Z,99.60
2018-05-13T00:27:13.499Z,99.90
2018-05-13T00:29:39.562Z,99.90
2018-05-13T00:32:09.310Z,99.90
2018-05-13T00:34:35.379Z,99.90
2018-05-13T00:37:01.537Z,99.90
2018-05-13T00:39:28.339Z,99.90
2018-05-13T00:41:54.437Z,99.90
2018-05-13T00:44:34.628Z,99.90
2018-05-13T00:47:00.937Z,99.90
2018-05-13T00:49:27.243Z,99.90
2018-05-13T00:51:53.744Z,99.90
2018-05-13T00:54:32.739Z,99.90
2018-05-13T00:56:59.861Z,99.90
2018-05-13T00:59:26.918Z,99.90
2018-05-13T01:01:54.060Z,99.90
2018-05-13T01:04:20.131Z,99.90
2018-05-13T01:06:46.211Z,99.90
2018-05-13T01:09:13.356Z,99.90
2018-05-13T01:11:39.456Z,99.90
2018-05-13T01:14:07.582Z,99.90
2018-05-13T01:16:33.656Z,99.90
2018-05-13T01:18:59.904Z,99.90
2018-05-13T01:21:26.008Z,99.90
2018-05-13T01:23:52.788Z,99.90
2018-05-13T01:26:18.937Z,99.90
2018-05-13T01:28:45.904Z,99.90
2018-05-13T01:31:12.997Z,99.90
2018-05-13T01:33:39.833Z,99.90
2018-05-13T01:36:05.968Z,99.90
2018-05-13T01:38:35.779Z,99.90
2018-05-13T01:41:06.204Z,99.90
2018-05-13T01:43:32.320Z,99.90
2018-05-13T01:46:02.331Z,99.90
2018-05-13T01:48:29.564Z,99.90
2018-05-13T01:50:55.727Z,99.90
2018-05-13T01:53:21.995Z,99.90
2018-05-13T01:55:49.187Z,99.90
2018-05-13T01:58:18.065Z,99.90
2018-05-13T02:00:44.896Z,99.90
2018-05-13T02:03:12.008Z,99.90
2018-05-13T02:05:38.265Z,99.90
2018-05-13T02:08:04.644Z,99.90
2018-05-13T02:10:30.759Z,99.90
2018-05-13T02:12:57.630Z,99.90
2018-05-13T02:15:23.756Z,99.90
2018-05-13T02:17:51.924Z,99.90
2018-05-13T02:20:21.213Z,99.90
2018-05-13T02:22:49.162Z,99.90
2018-05-13T02:25:18.021Z,99.70
2018-05-13T02:27:44.156Z,99.70
2018-05-13T02:30:10.370Z,99.90
2018-05-13T02:32:37.530Z,99.90
2018-05-13T02:35:06.087Z,99.90
2018-05-13T02:37:33.556Z,99.90
2018-05-13T02:39:59.664Z,99.90
2018-05-13T02:42:26.786Z,99.60
2018-05-13T02:44:53.583Z,99.90
2018-05-13T02:47:19.727Z,99.90
2018-05-13T02:49:45.883Z,99.90
2018-05-13T02:52:12.081Z,99.90
2018-05-13T02:54:39.184Z,99.90
2018-05-13T02:57:05.245Z,99.90
2018-05-13T02:59:35.105Z,99.90
2018-05-13T03:02:01.253Z,99.90
2018-05-13T03:04:28.582Z,99.90
2018-05-13T03:06:56.681Z,99.90
2018-05-13T03:09:23.731Z,99.90
2018-05-13T03:11:50.547Z,99.90
2018-05-13T03:14:16.727Z,99.90
2018-05-13T03:16:43.861Z,99.90
2018-05-13T03:19:09.902Z,99.90
2018-05-13T03:21:39.596Z,99.90
2018-05-13T03:24:06.661Z,99.90
2018-05-13T03:26:33.797Z,99.90
2018-05-13T03:28:59.881Z,99.90
2018-05-13T03:31:26.751Z,99.90
2018-05-13T03:33:54.785Z,99.90
2018-05-13T03:36:22.709Z,99.90
2018-05-13T03:38:48.814Z,99.90
2018-05-13T03:41:14.915Z,99.90
2018-05-13T03:43:42.166Z,99.90
2018-05-13T03:46:08.996Z,99.90
2018-05-13T03:48:35.049Z,99.90
2018-05-13T03:51:01.199Z,99.90
2018-05-13T03:53:27.254Z,99.90
2018-05-13T03:55:54.403Z,99.90
2018-05-13T03:58:20.661Z,99.90
2018-05-13T04:00:47.531Z,99.90
2018-05-13T04:03:13.617Z,99.90
2018-05-13T04:05:40.533Z,99.90
2018-05-13T04:11:33.362Z,99.90
2018-05-13T04:14:12.863Z,99.90
2018-05-13T04:16:41.080Z,99.90
2018-05-13T04:19:08.665Z,99.90
2018-05-13T04:21:36.112Z,99.90
2018-05-13T04:24:03.567Z,99.90
2018-05-13T04:26:31.002Z,99.90
2018-05-13T04:28:58.429Z,99.90
2018-05-13T04:31:25.946Z,99.90
2018-05-13T04:33:53.377Z,99.90
2018-05-13T04:36:20.811Z,99.90
2018-05-13T04:38:54.176Z,99.90
2018-05-13T04:41:21.593Z,99.90
2018-05-13T04:43:49.022Z,99.90
2018-05-13T04:46:16.458Z,99.90
2018-05-13T04:48:44.652Z,99.90
2018-05-13T04:51:12.269Z,99.90
2018-05-13T04:53:39.721Z,99.90
2018-05-13T04:56:08.654Z,99.90
2018-05-13T04:58:36.086Z,99.90
2018-05-13T05:01:03.538Z,99.90
2018-05-13T05:03:30.962Z,99.90
2018-05-13T05:05:58.433Z,99.90
2018-05-13T05:08:26.198Z,99.80
2018-05-13T05:10:53.622Z,99.60
2018-05-13T05:13:21.061Z,98.30
2018-05-13T05:15:48.506Z,98.70
2018-05-13T05:18:16.890Z,98.70
2018-05-13T05:20:45.083Z,99.10
2018-05-13T05:23:12.763Z,98.80
2018-05-13T05:25:40.194Z,98.20
2018-05-13T05:28:09.554Z,98.50
2018-05-13T05:30:37.207Z,97.20
2018-05-13T05:33:04.628Z,96.70
2018-05-13T05:35:32.054Z,95.70
2018-05-13T05:38:00.798Z,95.50
2018-05-13T05:40:28.342Z,95.40
2018-05-13T05:42:55.774Z,94.50
2018-05-13T05:45:23.206Z,94.30
2018-05-13T05:47:51.530Z,93.30
2018-05-13T05:50:20.115Z,93.10
2018-05-13T05:52:48.288Z,93.10
2018-05-13T05:55:15.730Z,93.00
2018-05-13T05:57:43.306Z,93.40
2018-05-13T06:00:10.755Z,92.60
2018-05-13T06:02:38.925Z,91.90
2018-05-13T06:05:06.368Z,91.90
2018-05-13T06:07:34.567Z,91.40
2018-05-13T06:10:02.778Z,91.20
2018-05-13T06:12:30.210Z,91.30
2018-05-13T06:14:57.814Z,91.00
2018-05-13T06:17:25.253Z,90.10
2018-05-13T06:19:52.994Z,90.20
2018-05-13T06:22:20.425Z,90.10
2018-05-13T06:24:47.902Z,90.40
2018-05-13T06:27:15.378Z,90.30
2018-05-13T06:29:42.809Z,89.60
2018-05-13T06:32:11.055Z,86.50
2018-05-13T06:34:39.257Z,85.90
2018-05-13T06:37:06.682Z,85.90
2018-05-13T06:39:34.929Z,83.60
2018-05-13T06:42:02.354Z,83.50
2018-05-13T06:44:29.793Z,84.50
2018-05-13T06:46:57.230Z,83.40
2018-05-13T06:49:25.636Z,78.30
2018-05-13T06:51:53.062Z,78.30
2018-05-13T06:54:21.259Z,77.80
2018-05-13T06:56:48.702Z,78.80
2018-05-13T06:59:16.893Z,80.20
2018-05-13T07:01:44.366Z,80.10
2018-05-13T07:04:11.814Z,79.60
2018-05-13T07:06:39.312Z,79.90
2018-05-13T07:09:06.738Z,80.60
2018-05-13T07:11:34.208Z,76.50
2018-05-13T07:14:01.634Z,78.20
2018-05-13T07:16:29.888Z,79.00
2018-05-13T07:18:58.472Z,79.30
2018-05-13T07:21:25.991Z,78.70
2018-05-13T07:23:53.437Z,78.40
2018-05-13T07:26:20.936Z,78.00
2018-05-13T07:28:48.363Z,74.10
2018-05-13T07:31:15.795Z,76.80
2018-05-13T07:33:43.589Z,73.60
2018-05-13T07:36:11.019Z,74.40
2018-05-13T07:38:38.480Z,72.50
2018-05-13T07:41:05.931Z,74.20
2018-05-13T07:43:34.132Z,71.80
2018-05-13T07:46:01.553Z,72.30
2018-05-13T07:48:29.770Z,70.80
2018-05-13T07:50:57.237Z,70.70
2018-05-13T07:53:24.638Z,70.00
2018-05-13T07:55:52.854Z,72.50
2018-05-13T07:58:20.286Z,72.50
2018-05-13T08:00:48.595Z,70.50
2018-05-13T08:03:16.031Z,70.80
2018-05-13T08:05:43.523Z,69.20
2018-05-13T08:08:11.178Z,70.00
2018-05-13T08:10:38.635Z,70.30
2018-05-13T08:13:06.068Z,68.80
2018-05-13T08:15:33.845Z,67.30
2018-05-13T08:18:01.347Z,67.00
2018-05-13T08:20:28.798Z,65.50
2018-05-13T08:22:56.220Z,66.00
2018-05-13T08:25:23.686Z,67.40
2018-05-13T08:27:51.118Z,66.10
2018-05-13T08:30:18.553Z,63.80
2018-05-13T08:32:47.647Z,67.20
2018-05-13T08:35:15.838Z,64.60
2018-05-13T08:37:43.334Z,64.70
2018-05-13T08:40:10.765Z,62.90
2018-05-13T08:42:38.185Z,61.90
2018-05-13T08:45:05.636Z,59.40
2018-05-13T08:47:33.092Z,58.90
2018-05-13T08:50:00.527Z,60.40
2018-05-13T08:52:27.981Z,61.80
2018-05-13T08:54:55.406Z,62.70
2018-05-13T08:57:23.018Z,61.60
2018-05-13T08:59:50.451Z,59.20
2018-05-13T09:02:17.893Z,58.90
2018-05-13T09:04:45.314Z,60.80
2018-05-13T09:07:13.566Z,59.90
2018-05-13T09:09:41.010Z,59.50
2018-05-13T09:12:08.462Z,59.70
2018-05-13T09:14:35.886Z,59.30
2018-05-13T09:17:03.346Z,61.40
2018-05-13T09:19:30.802Z,57.40
2018-05-13T09:21:58.225Z,60.10
2018-05-13T09:24:25.657Z,59.20
2018-05-13T09:26:53.107Z,58.30
2018-05-13T09:29:20.539Z,56.10
2018-05-13T09:31:47.969Z,55.10
2018-05-13T09:34:16.174Z,58.80
2018-05-13T09:36:43.755Z,58.80
2018-05-13T09:39:12.234Z,57.70
2018-05-13T09:41:39.679Z,57.40
2018-05-13T09:44:07.098Z,57.90
2018-05-13T09:46:34.528Z,54.40
2018-05-13T09:49:02.012Z,55.80
2018-05-13T09:51:30.218Z,58.10
2018-05-13T09:53:57.649Z,58.20
2018-05-13T09:56:25.898Z,58.40
2018-05-13T09:58:53.329Z,58.40
2018-05-13T10:01:20.767Z,57.80
2018-05-13T10:03:48.206Z,58.10
2018-05-13T10:06:17.038Z,53.50
2018-05-13T10:08:44.506Z,53.60
2018-05-13T10:11:11.947Z,56.90
2018-05-13T10:13:40.146Z,57.30
2018-05-13T10:16:07.892Z,57.30
2018-05-13T10:18:35.458Z,57.30
2018-05-13T10:21:02.891Z,58.00
2018-05-13T10:23:30.486Z,56.20
2018-05-13T10:25:58.169Z,56.50
2018-05-13T10:28:25.594Z,57.80
2018-05-13T10:30:53.195Z,55.70
2018-05-13T10:33:21.466Z,53.30
2018-05-13T10:35:49.675Z,55.80
2018-05-13T10:38:18.086Z,55.90
2018-05-13T10:40:45.519Z,55.80
2018-05-13T10:43:12.991Z,56.10
2018-05-13T10:45:40.435Z,57.60
2018-05-13T10:48:07.874Z,52.00
2018-05-13T10:50:36.082Z,52.90
2018-05-13T10:53:03.520Z,53.00
2018-05-13T10:55:31.778Z,55.00
2018-05-13T10:57:59.475Z,54.90
2018-05-13T11:00:26.966Z,55.20
2018-05-13T11:02:54.394Z,55.50
2018-05-13T11:05:21.862Z,52.70
2018-05-13T11:07:49.297Z,56.20
2018-05-13T11:10:17.041Z,52.90
2018-05-13T11:12:44.422Z,56.70
2018-05-13T11:15:11.854Z,56.20
2018-05-13T11:17:40.315Z,53.90
2018-05-13T11:20:07.750Z,53.80
2018-05-13T11:22:35.183Z,51.30
2018-05-13T11:25:02.701Z,51.10
2018-05-13T11:27:30.222Z,50.50
2018-05-13T11:29:57.650Z,50.70
2018-05-13T11:32:25.163Z,52.10
2018-05-13T11:34:52.594Z,53.20
2018-05-13T11:37:20.024Z,53.90
2018-05-13T11:39:47.513Z,53.60
2018-05-13T11:42:14.927Z,53.30
2018-05-13T11:44:43.118Z,54.30
2018-05-13T11:47:10.706Z,54.20
2018-05-13T11:49:38.171Z,53.40
2018-05-13T11:52:05.601Z,51.90
2018-05-13T11:54:33.358Z,53.10
2018-05-13T11:57:00.790Z,53.20
2018-05-13T11:59:28.981Z,52.10
2018-05-13T12:01:57.194Z,53.90
2018-05-13T12:04:24.628Z,54.10
2018-05-13T12:06:52.058Z,55.30
2018-05-13T12:09:20.297Z,55.10
2018-05-13T12:11:47.743Z,55.00
2018-05-13T12:14:15.293Z,54.10
2018-05-13T12:16:42.752Z,54.20
2018-05-13T12:19:10.190Z,53.20
2018-05-13T12:21:37.650Z,52.70
2018-05-13T12:24:05.097Z,52.50
2018-05-13T12:26:33.296Z,53.30
2018-05-13T12:29:00.829Z,53.30
2018-05-13T12:31:28.225Z,53.90
2018-05-13T12:33:55.656Z,56.00
2018-05-13T12:36:23.302Z,53.60
2018-05-13T12:38:52.169Z,53.60
2018-05-13T12:41:19.705Z,53.60
2018-05-13T12:43:47.158Z,54.40
2018-05-13T12:46:14.587Z,54.70
2018-05-13T12:48:42.085Z,53.90
2018-05-13T12:53:43.601Z,53.40
2018-05-13T12:56:12.712Z,52.90
2018-05-13T12:58:40.046Z,52.80
2018-05-13T13:01:08.310Z,53.20
2018-05-13T13:03:35.741Z,53.10
2018-05-13T13:06:03.166Z,54.50
2018-05-13T13:08:30.650Z,52.70
2018-05-13T13:10:58.108Z,53.30
2018-05-13T13:13:25.544Z,54.00
2018-05-13T13:15:52.974Z,53.30
2018-05-13T13:18:21.183Z,53.70
2018-05-13T13:20:48.899Z,53.70
2018-05-13T13:23:17.822Z,54.70
2018-05-13T13:25:45.258Z,54.80
2018-05-13T13:28:13.507Z,55.80
2018-05-13T13:30:40.968Z,55.80
2018-05-13T13:33:08.427Z,54.00
2018-05-13T13:35:35.818Z,55.10
2018-05-13T13:38:04.050Z,54.70
2018-05-13T13:40:31.478Z,55.00
2018-05-13T13:42:59.222Z,53.60
2018-05-13T13:45:26.666Z,54.40
2018-05-13T13:47:54.878Z,54.90
2018-05-13T13:50:22.906Z,54.70
2018-05-13T13:52:51.158Z,56.00
2018-05-13T13:55:18.631Z,56.10
2018-05-13T13:57:46.091Z,53.80
2018-05-13T14:00:14.571Z,56.70
2018-05-13T14:02:41.990Z,56.10
2018-05-13T14:05:09.418Z,55.70
2018-05-13T14:07:38.539Z,55.80
2018-05-13T14:10:06.026Z,55.50
2018-05-13T14:12:33.534Z,57.00
2018-05-13T14:15:01.013Z,57.60
2018-05-13T14:17:28.485Z,56.90
2018-05-13T14:19:56.042Z,57.30
2018-05-13T14:22:24.319Z,57.60
2018-05-13T14:24:51.804Z,57.50
2018-05-13T14:27:19.231Z,57.30
2018-05-13T14:29:46.819Z,56.70
2018-05-13T15:54:11.338Z,55.30
2018-05-13T15:56:38.819Z,54.50
2018-05-13T15:59:06.574Z,54.70
2018-05-13T16:01:34.571Z,51.40
2018-05-13T16:04:02.024Z,52.80
2018-05-13T16:06:29.786Z,52.30
2018-05-13T16:08:57.195Z,53.80
2018-05-13T16:11:25.405Z,52.90
2018-05-13T16:13:52.839Z,52.90
2018-05-13T16:16:20.260Z,51.80
2018-05-13T16:18:47.719Z,52.90
2018-05-13T16:21:15.235Z,53.50
2018-05-13T16:23:42.715Z,51.90
2018-05-13T16:26:10.143Z,52.50
2018-05-13T16:28:37.622Z,52.40
2018-05-13T16:31:05.046Z,53.30
2018-05-13T16:33:32.559Z,52.50
2018-05-13T16:36:00.066Z,50.60
2018-05-13T16:38:27.540Z,51.90
2018-05-13T16:40:54.943Z,52.30
2018-05-13T16:43:22.354Z,50.80
2018-05-13T16:45:49.785Z,50.80
2018-05-13T16:48:17.280Z,49.20
2018-05-13T16:50:44.698Z,48.30
2018-05-13T16:53:12.325Z,48.40
2018-05-13T16:55:40.503Z,47.80
2018-05-13T16:58:07.922Z,47.80
2018-05-13T17:00:35.683Z,47.10
2018-05-13T17:03:03.114Z,48.20
2018-05-13T17:05:31.302Z,46.50
2018-05-13T17:07:59.210Z,46.60
2018-05-13T17:10:26.638Z,49.70
2018-05-13T17:12:54.074Z,47.40
2018-05-13T17:15:22.254Z,47.60
2018-05-13T17:17:49.675Z,47.50
2018-05-13T17:20:17.108Z,48.10
2018-05-13T17:22:44.530Z,48.60
2018-05-13T17:25:11.954Z,48.40
2018-05-13T17:27:39.671Z,47.50
2018-05-13T17:30:07.150Z,48.30
2018-05-13T17:32:34.695Z,48.10
2018-05-13T17:35:02.134Z,49.20
2018-05-13T17:37:29.654Z,49.90
2018-05-13T17:39:57.764Z,51.60
2018-05-13T17:42:25.185Z,51.40
2018-05-13T17:44:53.380Z,52.20
2018-05-13T17:47:21.562Z,52.90
2018-05-13T17:49:49.255Z,52.90
2018-05-13T17:52:16.608Z,52.10
2018-05-13T17:54:44.026Z,51.70
2018-05-13T17:57:12.293Z,53.90
2018-05-13T17:59:40.035Z,53.20
2018-05-13T18:02:07.630Z,54.50
2018-05-13T18:04:35.813Z,54.60
2018-05-13T18:07:04.030Z,55.20
2018-05-13T18:09:31.522Z,54.50
2018-05-13T18:11:59.854Z,55.30
2018-05-13T18:14:27.278Z,55.20
2018-05-13T18:16:55.465Z,55.70
2018-05-13T18:19:22.919Z,55.60
2018-05-13T18:21:50.350Z,55.50
2018-05-13T18:24:17.782Z,55.40
2018-05-13T18:26:45.206Z,56.30
2018-05-13T18:29:12.653Z,56.10
2018-05-13T18:31:40.089Z,58.10
2018-05-13T18:34:08.278Z,57.20
2018-05-13T18:36:35.715Z,57.20
2018-05-13T18:39:04.165Z,57.80
2018-05-13T18:41:31.559Z,57.80
2018-05-13T18:43:59.737Z,57.40
2018-05-13T18:46:27.934Z,58.70
2018-05-13T18:48:55.359Z,58.70
2018-05-13T18:51:23.550Z,59.10
2018-05-13T18:53:51.753Z,59.20
2018-05-13T18:56:19.211Z,59.10
2018-05-13T18:58:46.718Z,58.40
2018-05-13T19:01:14.205Z,59.10
2018-05-13T19:03:42.392Z,60.30
2018-05-13T19:06:09.851Z,60.20
2018-05-13T19:08:37.283Z,60.20
2018-05-13T19:11:05.461Z,61.90
2018-05-13T19:13:33.825Z,62.10
2018-05-13T19:16:02.021Z,62.50
2018-05-13T19:18:30.320Z,62.60
2018-05-13T19:20:57.758Z,62.50
2018-05-13T19:23:25.949Z,63.80
2018-05-13T19:25:53.502Z,63.80
2018-05-13T19:28:20.927Z,64.20
2018-05-13T19:30:48.387Z,65.30
2018-05-13T19:33:15.775Z,65.70
2018-05-13T19:35:43.198Z,65.10
2018-05-13T19:38:10.632Z,66.40
2018-05-13T19:40:38.079Z,66.10
2018-05-13T19:43:05.506Z,67.50
2018-05-13T19:45:32.934Z,66.70
2018-05-13T19:48:01.122Z,68.00
2018-05-13T19:50:29.314Z,67.70
2018-05-13T19:52:56.742Z,67.60
2018-05-13T19:55:25.031Z,69.30
2018-05-13T19:57:53.294Z,67.70
2018-05-13T20:00:21.483Z,68.40
2018-05-13T20:02:49.813Z,68.70
2018-05-13T20:05:17.162Z,68.70
2018-05-13T20:07:44.582Z,68.60
2018-05-13T20:10:12.006Z,69.30
2018-05-13T20:12:40.239Z,68.90
2018-05-13T20:15:07.674Z,68.90
2018-05-13T20:17:35.117Z,68.50
2018-05-13T20:20:03.307Z,69.80
2018-05-13T20:22:30.790Z,69.80
2018-05-13T20:24:58.666Z,69.70
2018-05-13T20:27:26.091Z,69.70
2018-05-13T20:29:53.519Z,69.60
2018-05-13T20:32:21.731Z,70.10
2018-05-13T20:34:49.225Z,69.60
2018-05-13T20:37:16.626Z,69.50
2018-05-13T20:39:44.838Z,69.40
2018-05-13T20:42:12.279Z,69.30
2018-05-13T20:44:39.828Z,69.50
2018-05-13T20:47:07.162Z,69.50
2018-05-13T20:49:35.350Z,69.30
2018-05-13T20:52:02.782Z,69.40
2018-05-13T20:54:31.714Z,70.10
2018-05-13T20:56:59.176Z,70.90
2018-05-13T20:59:26.641Z,69.90
2018-05-13T21:01:54.050Z,69.30
2018-05-13T21:04:21.469Z,69.30
2018-05-13T21:06:49.117Z,69.20
2018-05-13T21:09:16.543Z,69.60
2018-05-13T21:11:44.727Z,69.50
2018-05-13T21:14:12.243Z,69.40
2018-05-13T21:16:39.664Z,70.00
2018-05-13T21:19:07.098Z,71.10
2018-05-13T21:21:34.582Z,70.50
2018-05-13T21:24:02.278Z,71.00
2018-05-13T21:26:29.820Z,71.10
2018-05-13T21:28:57.238Z,70.50
2018-05-13T21:31:24.663Z,70.60
2018-05-13T21:33:52.102Z,70.20
2018-05-13T21:36:19.525Z,71.20
2018-05-13T21:38:47.259Z,71.70
2018-05-13T21:41:15.678Z,71.60
2018-05-13T21:43:43.097Z,71.60
2018-05-13T21:46:11.282Z,71.80
2018-05-13T21:48:38.987Z,71.70
2018-05-13T21:51:06.428Z,72.50
2018-05-13T21:53:33.935Z,72.20
2018-05-13T21:56:01.370Z,74.00
2018-05-13T21:58:28.794Z,72.40
2018-05-13T22:00:56.263Z,74.20
2018-05-13T22:03:23.698Z,74.60
2018-05-13T22:05:51.158Z,73.70
2018-05-13T22:08:18.675Z,73.60
2018-05-13T22:10:47.011Z,74.10
2018-05-13T22:13:14.442Z,74.20
2018-05-13T22:15:42.626Z,75.70
2018-05-13T22:18:10.062Z,75.70
2018-05-13T22:20:38.242Z,74.40
2018-05-13T22:23:06.441Z,75.80
2018-05-13T22:25:33.859Z,75.80
2018-05-13T22:28:02.119Z,75.80
2018-05-13T22:30:29.535Z,75.30
2018-05-13T22:32:56.958Z,76.80
2018-05-13T22:35:25.178Z,77.90
2018-05-13T22:37:52.610Z,77.70
2018-05-13T22:40:20.056Z,77.70
2018-05-13T22:42:48.249Z,79.30
2018-05-13T22:45:15.670Z,79.10
2018-05-13T22:47:43.178Z,78.10
2018-05-13T22:50:10.633Z,78.50
2018-05-13T22:52:38.057Z,78.30
2018-05-13T22:55:06.249Z,79.30
2018-05-13T22:57:33.690Z,79.00
2018-05-13T23:00:01.882Z,79.30
2018-05-13T23:02:29.298Z,79.30
2018-05-13T23:04:56.751Z,79.50
2018-05-13T23:07:25.681Z,80.30
2018-05-13T23:09:53.150Z,80.30
2018-05-13T23:12:20.570Z,80.40
2018-05-13T23:14:47.993Z,80.00
2018-05-13T23:17:15.409Z,80.30
2018-05-13T23:19:43.097Z,80.80
2018-05-13T23:22:17.146Z,80.70
2018-05-13T23:24:46.244Z,80.40
2018-05-13T23:27:13.662Z,80.40
2018-05-13T23:29:41.099Z,80.60
2018-05-13T23:32:08.563Z,80.70
2018-05-13T23:34:36.078Z,82.00
2018-05-13T23:37:04.193Z,83.10
2018-05-13T23:39:31.670Z,82.40
2018-05-13T23:41:59.498Z,82.00
2018-05-13T23:44:26.904Z,81.70
2018-05-13T23:46:54.340Z,83.20
2018-05-13T23:49:22.530Z,83.20
2018-05-13T23:51:50.035Z,83.20
2018-05-13T23:54:18.256Z,83.80
2018-05-13T23:56:45.700Z,83.50
2018-05-13T23:59:13.132Z,83.50
